Time;durP1;ratioP1;P1;durP2;ratioP2;P2;SDS_P1;SDS_P2;PMS_P1;PMS_P2;Temp;Humidity;BMP_temperature;BMP_pressure;BME280_temperature;BME280_humidity;BME280_pressure;Samples;Min_cycle;Max_cycle;Signal;HPM_P1;HPM_P2
2021/10/07 00:01:42;;;;;;;16.50;8.17;;;11.40;99.90;;;;;;4410257;32;20239;-66
2021/10/07 00:04:09;;;;;;;13.13;7.47;;;11.40;99.90;;;;;;4408921;32;20127;-68
2021/10/07 00:06:36;;;;;;;13.20;7.20;;;11.30;99.90;;;;;;4408175;32;20471;-67
2021/10/07 00:09:05;;;;;;;12.57;6.73;;;11.30;99.90;;;;;;4409879;32;20123;-66
2021/10/07 00:11:31;;;;;;;14.17;7.03;;;11.20;99.90;;;;;;4410084;32;20515;-67
2021/10/07 00:13:58;;;;;;;12.73;6.80;;;11.20;99.90;;;;;;4408458;32;20127;-66
2021/10/07 00:16:25;;;;;;;12.47;6.93;;;11.20;99.90;;;;;;4409642;32;20177;-66
2021/10/07 00:18:52;;;;;;;14.87;7.97;;;11.20;99.90;;;;;;4411478;32;20499;-67
2021/10/07 00:21:19;;;;;;;11.63;7.00;;;11.10;99.90;;;;;;4411699;32;20265;-67
2021/10/07 00:24:07;;;;;;;13.17;6.60;;;11.10;99.90;;;;;;4412278;32;20131;-67
2021/10/07 00:26:48;;;;;;;13.13;7.30;;;11.10;99.90;;;;;;4412592;32;20196;-67
2021/10/07 00:29:32;;;;;;;13.00;7.37;;;11.10;99.90;;;;;;4412995;32;20145;-67
2021/10/07 00:32:09;;;;;;;13.30;6.67;;;11.20;99.90;;;;;;4411063;32;20119;-67
2021/10/07 00:39:52;;;;;;;16.17;7.00;;;11.20;99.90;;;;;;4416609;32;20178;-67
2021/10/07 00:42:19;;;;;;;12.13;6.93;;;11.10;99.90;;;;;;4413363;32;20235;-67
2021/10/07 00:44:47;;;;;;;12.27;6.97;;;11.20;99.90;;;;;;4412828;32;20143;-67
2021/10/07 00:47:16;;;;;;;13.67;7.20;;;11.20;99.90;;;;;;4416054;32;20144;-67
2021/10/07 00:49:43;;;;;;;16.03;7.33;;;11.20;99.90;;;;;;4417264;32;20215;-67
2021/10/07 00:52:17;;;;;;;13.93;6.83;;;11.20;99.90;;;;;;4412408;32;20132;-66
2021/10/07 00:54:49;;;;;;;12.90;6.23;;;11.20;99.90;;;;;;4410601;32;20530;-67
2021/10/07 00:57:18;;;;;;;12.30;7.10;;;11.10;99.90;;;;;;4412394;32;20201;-67
2021/10/07 00:59:49;;;;;;;13.40;6.87;;;11.10;99.90;;;;;;4412506;32;20181;-67
2021/10/07 01:02:17;;;;;;;11.23;6.43;;;11.10;99.90;;;;;;4412474;32;20396;-67
2021/10/07 01:04:45;;;;;;;11.13;6.80;;;11.10;99.90;;;;;;4410802;32;20173;-66
2021/10/07 01:07:12;;;;;;;15.87;6.90;;;11.20;99.90;;;;;;4411056;32;20155;-67
2021/10/07 01:09:39;;;;;;;12.57;6.67;;;11.10;99.90;;;;;;4412207;32;20127;-67
2021/10/07 01:12:07;;;;;;;12.53;6.47;;;11.10;99.90;;;;;;4410598;32;20182;-67
2021/10/07 01:14:47;;;;;;;10.87;6.73;;;11.10;99.90;;;;;;4412524;32;20120;-66
2021/10/07 01:17:22;;;;;;;13.17;6.50;;;11.10;99.90;;;;;;4410541;32;20177;-67
2021/10/07 01:19:51;;;;;;;11.53;6.63;;;11.10;99.90;;;;;;4411787;32;20203;-67
2021/10/07 01:22:19;;;;;;;11.73;6.70;;;11.10;99.90;;;;;;4411959;32;20174;-66
2021/10/07 01:24:47;;;;;;;13.30;6.40;;;11.10;99.90;;;;;;4409712;32;20128;-67
2021/10/07 01:27:19;;;;;;;13.00;6.23;;;11.00;99.90;;;;;;4411808;32;20169;-66
2021/10/07 01:29:52;;;;;;;13.97;6.77;;;11.10;99.90;;;;;;4411977;32;20131;-67
2021/10/07 01:32:20;;;;;;;12.73;6.03;;;11.10;99.90;;;;;;4411676;32;20116;-67
2021/10/07 01:34:47;;;;;;;11.00;6.97;;;11.10;99.90;;;;;;4420233;32;20139;-67
2021/10/07 01:37:14;;;;;;;12.07;6.50;;;11.00;99.90;;;;;;4411395;32;20185;-66
2021/10/07 01:39:41;;;;;;;12.97;7.43;;;11.00;99.90;;;;;;4410182;32;20515;-67
2021/10/07 01:42:09;;;;;;;12.80;6.30;;;11.00;99.90;;;;;;4411851;32;20421;-67
2021/10/07 01:44:35;;;;;;;13.43;7.30;;;11.00;99.90;;;;;;4410233;32;20127;-67
2021/10/07 01:47:03;;;;;;;12.57;6.83;;;11.00;99.90;;;;;;4411910;32;20176;-67
2021/10/07 01:49:29;;;;;;;13.60;7.03;;;11.00;99.90;;;;;;4409961;32;20203;-66
2021/10/07 01:51:56;;;;;;;10.17;6.90;;;10.90;99.90;;;;;;4410245;32;20120;-66
2021/10/07 01:54:23;;;;;;;12.37;7.00;;;10.90;99.90;;;;;;4410068;32;20454;-66
2021/10/07 01:56:50;;;;;;;13.17;6.97;;;10.90;99.90;;;;;;4410673;32;20156;-66
2021/10/07 01:59:17;;;;;;;12.33;6.63;;;10.90;99.90;;;;;;4411722;32;20192;-67
2021/10/07 02:01:43;;;;;;;12.30;6.53;;;10.80;99.90;;;;;;4409952;32;20131;-68
2021/10/07 02:04:10;;;;;;;11.50;6.83;;;10.80;99.90;;;;;;4411641;32;20162;-66
2021/10/07 02:06:37;;;;;;;13.37;6.77;;;10.80;99.90;;;;;;4411814;32;20120;-67
2021/10/07 02:09:06;;;;;;;11.67;6.87;;;10.90;99.90;;;;;;4411260;32;20131;-67
2021/10/07 02:11:33;;;;;;;11.87;6.73;;;10.90;99.90;;;;;;4411671;32;20120;-66
2021/10/07 02:14:01;;;;;;;12.07;6.50;;;10.80;99.90;;;;;;4411326;32;20437;-66
2021/10/07 02:16:29;;;;;;;10.57;7.10;;;10.80;99.90;;;;;;4411444;32;20131;-66
2021/10/07 02:18:56;;;;;;;12.80;6.50;;;10.80;99.90;;;;;;4411315;32;20119;-66
2021/10/07 02:21:24;;;;;;;11.73;6.60;;;10.80;99.90;;;;;;4409671;32;20140;-67
2021/10/07 02:23:51;;;;;;;11.87;7.07;;;10.80;99.90;;;;;;4411158;32;20155;-66
2021/10/07 02:26:18;;;;;;;12.77;6.57;;;10.80;99.90;;;;;;4411272;32;20169;-66
2021/10/07 02:28:45;;;;;;;12.77;6.57;;;10.70;99.90;;;;;;4411419;32;20467;-67
2021/10/07 02:31:12;;;;;;;16.10;6.87;;;10.70;99.90;;;;;;4409714;32;20234;-67
2021/10/07 02:33:39;;;;;;;16.03;6.60;;;10.70;99.90;;;;;;4409554;32;20135;-66
2021/10/07 02:36:06;;;;;;;13.30;6.57;;;10.60;99.90;;;;;;4409454;32;20442;-66
2021/10/07 02:38:33;;;;;;;13.53;6.77;;;10.60;99.90;;;;;;4408856;32;20196;-66
2021/10/07 02:41:00;;;;;;;13.97;7.20;;;10.60;99.90;;;;;;4410505;32;20391;-66
2021/10/07 02:43:26;;;;;;;13.90;6.87;;;10.60;99.90;;;;;;4409530;32;20123;-67
2021/10/07 02:45:53;;;;;;;14.07;6.80;;;10.70;99.90;;;;;;4409538;32;20123;-66
2021/10/07 02:48:20;;;;;;;11.13;6.90;;;10.60;99.90;;;;;;4411200;32;20181;-66
2021/10/07 02:50:47;;;;;;;12.57;6.80;;;10.60;99.90;;;;;;4409068;32;20124;-66
2021/10/07 02:53:13;;;;;;;14.47;7.07;;;10.60;99.90;;;;;;4410801;32;20399;-66
2021/10/07 02:55:40;;;;;;;12.67;6.70;;;10.50;99.90;;;;;;4411055;32;20181;-66
2021/10/07 02:58:07;;;;;;;11.00;6.30;;;10.50;99.90;;;;;;4411169;32;20120;-67
2021/10/07 03:00:34;;;;;;;10.87;6.50;;;10.50;99.90;;;;;;4410841;32;20128;-67
2021/10/07 03:03:01;;;;;;;16.13;7.00;;;10.50;99.90;;;;;;4410230;32;20120;-67
2021/10/07 03:05:27;;;;;;;14.00;6.70;;;10.50;99.90;;;;;;4410782;32;20384;-66
2021/10/07 03:07:54;;;;;;;11.50;6.93;;;10.50;99.90;;;;;;4410865;32;20120;-67
2021/10/07 03:10:23;;;;;;;12.67;7.03;;;10.50;99.90;;;;;;4410558;32;20210;-67
2021/10/07 03:12:50;;;;;;;13.97;6.70;;;10.50;99.90;;;;;;4409814;32;20135;-67
2021/10/07 03:15:17;;;;;;;13.87;7.40;;;10.50;99.90;;;;;;4410340;32;20127;-66
2021/10/07 03:17:44;;;;;;;12.17;7.23;;;10.40;99.90;;;;;;4408859;32;20177;-66
2021/10/07 03:20:11;;;;;;;13.53;6.50;;;10.40;99.90;;;;;;4410463;32;20400;-66
2021/10/07 03:22:38;;;;;;;11.97;6.90;;;10.30;99.90;;;;;;4395364;32;20135;-66
2021/10/07 03:25:05;;;;;;;12.80;6.60;;;10.30;99.90;;;;;;4410517;32;20444;-66
2021/10/07 03:27:32;;;;;;;12.10;6.77;;;10.30;99.90;;;;;;4408754;32;20204;-66
2021/10/07 03:29:59;;;;;;;11.70;6.73;;;10.30;99.90;;;;;;4410669;32;20146;-67
2021/10/07 03:32:25;;;;;;;13.20;6.33;;;10.20;99.90;;;;;;4410345;32;20127;-66
2021/10/07 03:34:52;;;;;;;13.23;7.03;;;10.20;99.90;;;;;;4409845;32;20155;-67
2021/10/07 03:37:19;;;;;;;14.53;7.17;;;10.20;99.90;;;;;;4408305;32;20135;-66
2021/10/07 03:39:46;;;;;;;14.60;6.90;;;10.20;99.90;;;;;;4410365;32;20196;-66
2021/10/07 03:42:12;;;;;;;15.33;7.13;;;10.20;99.90;;;;;;4410380;32;20224;-66
2021/10/07 03:44:41;;;;;;;11.77;6.03;;;10.10;99.90;;;;;;4410351;32;20174;-66
2021/10/07 03:47:08;;;;;;;13.93;6.93;;;10.10;99.90;;;;;;4410053;32;20188;-66
2021/10/07 03:49:35;;;;;;;16.17;7.40;;;10.00;99.90;;;;;;4410203;32;20173;-67
2021/10/07 03:52:02;;;;;;;11.63;6.90;;;10.00;99.90;;;;;;4410299;32;20169;-66
2021/10/07 03:54:29;;;;;;;11.63;7.30;;;10.00;99.90;;;;;;4409995;32;20136;-67
2021/10/07 03:56:56;;;;;;;12.40;6.73;;;10.00;99.90;;;;;;4408299;32;20150;-67
2021/10/07 03:59:22;;;;;;;11.57;6.50;;;10.00;99.90;;;;;;4408484;32;20159;-67
2021/10/07 04:01:49;;;;;;;13.57;6.60;;;9.90;99.90;;;;;;4409982;32;20405;-66
2021/10/07 04:04:16;;;;;;;13.97;6.73;;;9.90;99.90;;;;;;4410117;32;20435;-66
2021/10/07 04:06:43;;;;;;;14.13;7.17;;;9.80;99.90;;;;;;4408278;32;20437;-67
2021/10/07 04:09:10;;;;;;;12.57;6.80;;;9.80;99.90;;;;;;4409769;32;20119;-67
2021/10/07 04:11:36;;;;;;;11.37;6.37;;;9.70;99.90;;;;;;4409456;32;20146;-67
2021/10/07 04:14:03;;;;;;;11.37;7.07;;;9.70;99.90;;;;;;4407341;32;20123;-67
2021/10/07 04:16:30;;;;;;;12.13;6.80;;;9.60;99.90;;;;;;4409763;32;20180;-66
2021/10/07 04:18:57;;;;;;;13.37;7.53;;;9.60;99.90;;;;;;4413696;32;20139;-66
2021/10/07 04:21:24;;;;;;;12.03;6.87;;;9.60;99.90;;;;;;4413260;32;20408;-66
2021/10/07 04:23:51;;;;;;;11.60;6.90;;;9.60;99.90;;;;;;4409905;32;20177;-67
2021/10/07 04:26:17;;;;;;;12.57;7.07;;;9.60;99.90;;;;;;4409900;32;20158;-66
2021/10/07 04:28:44;;;;;;;14.77;6.90;;;9.50;99.90;;;;;;4407585;32;20124;-67
2021/10/07 04:31:11;;;;;;;13.27;6.77;;;9.50;99.90;;;;;;4408099;32;20120;-67
2021/10/07 04:33:38;;;;;;;11.97;6.67;;;9.50;99.90;;;;;;4408076;32;20132;-66
2021/10/07 04:36:04;;;;;;;11.60;6.40;;;9.50;99.90;;;;;;4409771;32;20131;-66
2021/10/07 04:38:31;;;;;;;12.23;6.47;;;9.50;99.90;;;;;;4407985;32;20194;-66
2021/10/07 04:40:58;;;;;;;14.73;6.80;;;9.50;99.90;;;;;;4409736;32;20135;-66
2021/10/07 04:43:25;;;;;;;11.97;7.03;;;9.50;99.90;;;;;;4409309;32;20193;-67
2021/10/07 04:45:51;;;;;;;17.20;7.33;;;9.50;99.90;;;;;;4407913;32;20123;-66
2021/10/07 04:48:18;;;;;;;13.77;6.90;;;9.40;99.90;;;;;;4409352;32;20131;-67
2021/10/07 04:50:45;;;;;;;17.03;7.23;;;9.40;99.90;;;;;;4409782;32;20131;-66
2021/10/07 04:53:12;;;;;;;12.80;6.40;;;9.40;99.90;;;;;;4408111;32;20123;-66
2021/10/07 04:55:38;;;;;;;12.40;7.03;;;9.30;99.90;;;;;;4408435;32;20123;-66
2021/10/07 04:58:05;;;;;;;12.80;7.10;;;9.20;99.90;;;;;;4408193;32;20124;-67
2021/10/07 05:00:32;;;;;;;12.70;7.20;;;9.20;99.90;;;;;;4409386;32;20147;-66
2021/10/07 05:02:59;;;;;;;11.47;6.30;;;9.10;99.90;;;;;;4410011;32;20403;-67
2021/10/07 05:05:26;;;;;;;12.97;6.80;;;9.10;99.90;;;;;;4412068;32;20143;-66
2021/10/07 05:07:52;;;;;;;19.47;7.10;;;9.10;99.90;;;;;;4416590;32;20188;-66
2021/10/07 05:10:19;;;;;;;10.80;6.83;;;9.10;99.90;;;;;;4412228;32;20132;-66
2021/10/07 05:12:46;;;;;;;12.00;6.80;;;9.10;99.90;;;;;;4412075;32;20123;-66
2021/10/07 05:15:13;;;;;;;13.30;7.07;;;9.00;99.90;;;;;;4411295;32;20507;-67
2021/10/07 05:17:39;;;;;;;11.03;6.87;;;9.00;99.90;;;;;;4411337;32;20229;-67
2021/10/07 05:20:07;;;;;;;12.10;6.87;;;9.00;99.90;;;;;;4410446;32;20558;-67
2021/10/07 05:22:35;;;;;;;14.27;7.23;;;8.90;99.90;;;;;;4396684;32;20175;-67
2021/10/07 05:25:02;;;;;;;15.37;7.30;;;8.90;99.90;;;;;;4410018;32;20442;-67
2021/10/07 05:27:29;;;;;;;15.67;6.93;;;8.90;99.90;;;;;;4412092;32;20419;-65
2021/10/07 05:29:55;;;;;;;15.30;7.10;;;8.90;99.90;;;;;;4411995;32;20181;-66
2021/10/07 05:32:22;;;;;;;12.40;6.77;;;8.90;99.90;;;;;;4410269;32;20174;-66
2021/10/07 05:34:49;;;;;;;14.73;7.20;;;8.90;99.90;;;;;;4409999;32;20119;-66
2021/10/07 05:37:18;;;;;;;11.67;6.83;;;8.90;99.90;;;;;;4410040;32;20435;-66
2021/10/07 05:39:45;;;;;;;13.13;6.97;;;8.80;99.90;;;;;;4411728;32;20427;-67
2021/10/07 05:42:12;;;;;;;14.27;6.80;;;8.80;99.90;;;;;;4409662;32;20131;-67
2021/10/07 05:44:39;;;;;;;13.03;7.00;;;8.70;99.90;;;;;;4411181;32;20233;-67
2021/10/07 05:47:05;;;;;;;16.97;7.07;;;8.70;99.90;;;;;;4409910;32;20232;-66
2021/10/07 05:49:32;;;;;;;16.83;7.30;;;8.70;99.90;;;;;;4411297;32;20476;-67
2021/10/07 05:51:59;;;;;;;11.90;6.17;;;8.70;99.90;;;;;;4411842;32;20139;-68
2021/10/07 05:54:26;;;;;;;14.90;7.47;;;8.70;99.90;;;;;;4411714;32;20127;-67
2021/10/07 05:56:53;;;;;;;16.27;7.83;;;8.70;99.90;;;;;;4409603;32;20152;-68
2021/10/07 05:59:20;;;;;;;15.90;7.00;;;8.70;99.90;;;;;;4397940;32;20162;-67
2021/10/07 06:01:47;;;;;;;11.57;7.10;;;8.70;99.90;;;;;;4411415;32;20135;-68
2021/10/07 06:04:14;;;;;;;11.17;6.77;;;8.80;99.90;;;;;;4411624;32;20385;-68
2021/10/07 06:06:41;;;;;;;12.13;7.27;;;8.80;99.90;;;;;;4409629;32;20124;-67
2021/10/07 06:09:07;;;;;;;11.77;6.87;;;8.80;99.90;;;;;;4411335;32;20130;-67
2021/10/07 06:11:35;;;;;;;13.33;7.07;;;8.80;99.90;;;;;;4416631;32;20176;-68
2021/10/07 06:14:03;;;;;;;14.57;6.90;;;8.80;99.90;;;;;;4409917;32;20241;-66
2021/10/07 06:16:33;;;;;;;12.60;7.20;;;8.80;99.90;;;;;;4411133;32;20127;-66
2021/10/07 06:19:03;;;;;;;15.33;6.80;;;8.80;99.90;;;;;;4409836;32;20146;-67
2021/10/07 06:21:30;;;;;;;13.20;6.90;;;8.80;99.90;;;;;;4410475;32;20143;-67
2021/10/07 06:23:58;;;;;;;16.73;6.67;;;8.80;99.90;;;;;;4411124;32;20197;-67
2021/10/07 06:26:40;;;;;;;15.10;7.27;;;8.80;99.90;;;;;;4410086;32;20178;-68
2021/10/07 06:29:07;;;;;;;12.17;6.90;;;8.80;99.90;;;;;;4409117;32;20150;-67
2021/10/07 06:31:35;;;;;;;10.80;6.30;;;8.90;99.90;;;;;;4410296;32;20151;-67
2021/10/07 06:34:02;;;;;;;11.77;6.43;;;9.00;99.90;;;;;;4411191;32;20448;-67
2021/10/07 06:36:29;;;;;;;12.77;7.00;;;9.10;99.90;;;;;;4411030;32;20127;-67
2021/10/07 06:38:56;;;;;;;15.40;7.13;;;9.20;99.90;;;;;;4411114;32;20369;-67
2021/10/07 06:41:22;;;;;;;12.60;6.30;;;9.30;99.90;;;;;;4410836;32;20139;-66
2021/10/07 06:43:50;;;;;;;11.50;6.23;;;9.40;99.90;;;;;;4410731;32;20139;-66
2021/10/07 06:46:17;;;;;;;14.17;6.30;;;9.50;99.90;;;;;;4410659;32;20147;-66
2021/10/07 06:48:43;;;;;;;9.03;6.20;;;9.60;99.90;;;;;;4409229;32;20169;-65
2021/10/07 06:51:11;;;;;;;12.97;6.53;;;9.70;99.90;;;;;;4409672;32;20151;-66
2021/10/07 06:53:38;;;;;;;13.23;6.70;;;9.80;99.90;;;;;;4409108;32;20530;-68
2021/10/07 06:56:08;;;;;;;16.73;6.43;;;9.80;99.90;;;;;;4409351;32;20209;-67
2021/10/07 06:58:35;;;;;;;13.97;6.60;;;9.90;99.90;;;;;;4409939;32;20422;-66
2021/10/07 07:01:02;;;;;;;11.87;6.47;;;9.90;99.90;;;;;;4411884;32;20147;-67
2021/10/07 07:03:29;;;;;;;12.07;6.73;;;9.80;99.90;;;;;;4416557;32;20196;-67
2021/10/07 07:05:55;;;;;;;13.70;6.23;;;9.90;99.90;;;;;;4408987;32;20211;-67
2021/10/07 07:08:22;;;;;;;12.87;6.57;;;9.90;99.90;;;;;;4410186;32;20135;-65
2021/10/07 07:10:49;;;;;;;13.60;6.20;;;10.00;99.90;;;;;;4409838;32;20135;-66
2021/10/07 07:13:16;;;;;;;11.80;6.03;;;10.00;99.90;;;;;;4408223;32;20130;-66
2021/10/07 07:15:43;;;;;;;15.20;6.30;;;10.00;99.90;;;;;;4408600;32;20170;-66
2021/10/07 07:18:11;;;;;;;10.67;6.07;;;10.10;99.90;;;;;;4408291;32;20498;-65
2021/10/07 07:20:38;;;;;;;14.40;5.97;;;10.10;99.90;;;;;;4409690;32;20503;-66
2021/10/07 07:23:11;;;;;;;12.93;6.40;;;10.10;99.90;;;;;;4408353;32;20182;-65
2021/10/07 07:25:38;;;;;;;10.37;5.63;;;10.10;99.90;;;;;;4407691;32;20345;-66
2021/10/07 07:28:05;;;;;;;11.03;5.63;;;10.20;99.90;;;;;;4408998;32;20189;-66
2021/10/07 07:30:32;;;;;;;14.33;6.13;;;10.20;99.90;;;;;;4410047;32;20387;-67
2021/10/07 07:33:00;;;;;;;13.30;5.90;;;10.30;99.90;;;;;;4408012;32;20139;-65
2021/10/07 07:35:30;;;;;;;13.60;6.13;;;10.40;99.90;;;;;;4408303;32;20163;-65
2021/10/07 07:38:06;;;;;;;11.90;5.80;;;10.50;99.90;;;;;;4416224;32;20207;-67
2021/10/07 07:40:33;;;;;;;13.53;5.63;;;10.60;99.90;;;;;;4408042;32;20188;-65
2021/10/07 07:43:00;;;;;;;14.87;5.50;;;10.70;99.90;;;;;;4409893;32;20461;-66
2021/10/07 07:45:27;;;;;;;10.07;5.57;;;10.70;99.90;;;;;;4396005;32;20183;-67
2021/10/07 07:47:56;;;;;;;16.20;6.17;;;10.90;99.90;;;;;;4408241;32;20171;-67
2021/10/07 07:50:25;;;;;;;15.33;5.90;;;11.00;99.90;;;;;;4408820;32;20400;-66
2021/10/07 07:52:53;;;;;;;17.27;6.13;;;11.00;99.90;;;;;;4409764;32;20469;-68
2021/10/07 07:55:21;;;;;;;11.10;5.70;;;11.10;99.90;;;;;;4408311;32;20170;-66
2021/10/07 07:57:48;;;;;;;13.13;5.60;;;11.40;99.90;;;;;;4408089;32;20496;-66
2021/10/07 08:00:16;;;;;;;12.67;5.60;;;11.80;99.90;;;;;;4409833;32;20175;-65
2021/10/07 08:02:42;;;;;;;13.30;5.90;;;12.40;99.90;;;;;;4409520;32;20162;-66
2021/10/07 08:05:10;;;;;;;14.40;5.30;;;12.80;99.90;;;;;;4409458;32;20131;-67
2021/10/07 08:07:37;;;;;;;13.70;5.67;;;13.10;99.90;;;;;;4409349;32;20147;-65
2021/10/07 08:10:05;;;;;;;13.93;5.90;;;13.40;99.90;;;;;;4409279;32;20181;-65
2021/10/07 08:12:33;;;;;;;14.90;6.00;;;13.80;99.90;;;;;;4409895;32;20181;-67
2021/10/07 08:15:02;;;;;;;12.07;5.60;;;14.00;99.90;;;;;;4408577;32;20154;-66
2021/10/07 08:17:30;;;;;;;14.57;5.40;;;14.30;99.90;;;;;;4407757;32;20135;-66
2021/10/07 08:19:57;;;;;;;12.97;5.77;;;14.40;99.90;;;;;;4409360;32;20193;-66
2021/10/07 08:22:24;;;;;;;14.33;5.70;;;14.50;99.90;;;;;;4409716;32;20139;-66
2021/10/07 08:24:52;;;;;;;12.30;5.63;;;14.70;99.90;;;;;;4408508;32;20143;-66
2021/10/07 08:27:19;;;;;;;15.60;5.43;;;15.10;99.90;;;;;;4407722;32;20166;-68
2021/10/07 08:29:46;;;;;;;12.37;5.10;;;15.30;99.20;;;;;;4407758;32;20167;-66
2021/10/07 08:32:13;;;;;;;8.40;5.20;;;15.50;98.10;;;;;;4408174;32;20135;-66
2021/10/07 08:34:40;;;;;;;10.90;5.27;;;15.70;97.00;;;;;;4409705;32;20131;-66
2021/10/07 08:37:06;;;;;;;10.60;5.30;;;15.80;97.20;;;;;;4412140;32;20212;-66
2021/10/07 08:39:33;;;;;;;12.83;5.80;;;16.20;97.20;;;;;;4417114;32;20199;-66
2021/10/07 08:42:01;;;;;;;14.30;5.70;;;16.40;96.20;;;;;;4410523;32;20146;-67
2021/10/07 08:44:27;;;;;;;11.83;5.53;;;16.70;95.90;;;;;;4412423;32;20346;-67
2021/10/07 08:46:55;;;;;;;10.87;5.80;;;17.00;94.50;;;;;;4412557;32;20139;-66
2021/10/07 08:49:24;;;;;;;13.03;5.30;;;17.30;93.90;;;;;;4409995;32;20135;-66
2021/10/07 08:51:51;;;;;;;11.53;5.80;;;17.50;93.10;;;;;;4410455;32;20217;-67
2021/10/07 08:54:19;;;;;;;11.97;5.73;;;17.80;92.40;;;;;;4411454;32;20210;-67
2021/10/07 08:56:46;;;;;;;11.17;5.03;;;17.80;91.80;;;;;;4409940;32;20163;-67
2021/10/07 08:59:18;;;;;;;16.20;5.83;;;18.20;91.00;;;;;;4412033;32;20187;-66
2021/10/07 09:01:48;;;;;;;10.57;5.67;;;18.40;90.60;;;;;;4412279;32;20241;-67
2021/10/07 09:04:30;;;;;;;8.93;5.10;;;18.50;89.50;;;;;;4412352;32;20207;-67
2021/10/07 09:07:05;;;;;;;12.77;5.80;;;18.50;89.20;;;;;;4412166;32;20139;-66
2021/10/07 09:09:34;;;;;;;12.87;5.50;;;18.70;88.70;;;;;;4410502;32;20161;-67
2021/10/07 09:12:06;;;;;;;9.97;5.50;;;18.80;87.80;;;;;;4410538;32;20151;-66
2021/10/07 09:14:43;;;;;;;12.10;5.27;;;18.90;86.10;;;;;;4411814;32;20180;-67
2021/10/07 09:17:13;;;;;;;12.17;5.17;;;19.00;86.60;;;;;;4413849;32;20490;-66
2021/10/07 09:19:45;;;;;;;10.40;5.33;;;19.00;85.90;;;;;;4418372;32;20224;-66
2021/10/07 09:22:20;;;;;;;10.30;5.07;;;19.10;85.40;;;;;;4411705;32;20138;-67
2021/10/07 09:24:50;;;;;;;13.57;5.40;;;19.20;84.20;;;;;;4410885;32;20127;-67
2021/10/07 09:27:24;;;;;;;12.57;5.07;;;19.20;84.20;;;;;;4411325;32;20175;-67
2021/10/07 09:29:57;;;;;;;11.13;4.37;;;19.40;83.90;;;;;;4410903;32;20189;-66
2021/10/07 09:32:26;;;;;;;12.17;5.07;;;19.60;83.10;;;;;;4411414;32;20161;-66
2021/10/07 09:34:53;;;;;;;13.17;4.70;;;20.10;82.40;;;;;;4409653;32;20173;-67
2021/10/07 09:37:28;;;;;;;16.30;4.87;;;20.20;80.90;;;;;;4410551;32;20497;-66
2021/10/07 09:40:00;;;;;;;8.83;4.53;;;20.40;79.90;;;;;;4409836;32;20143;-67
2021/10/07 09:42:30;;;;;;;9.93;4.50;;;20.50;78.40;;;;;;4411539;32;20192;-67
2021/10/07 09:45:00;;;;;;;9.87;4.80;;;20.40;78.00;;;;;;4410132;32;20136;-67
2021/10/07 09:47:32;;;;;;;11.23;4.63;;;20.40;78.00;;;;;;4411625;32;20131;-67
2021/10/07 09:50:17;;;;;;;11.40;5.00;;;20.40;78.40;;;;;;4411223;32;20507;-67
2021/10/07 09:52:47;;;;;;;11.73;4.90;;;20.70;76.30;;;;;;4409824;32;20453;-66
2021/10/07 09:55:18;;;;;;;11.20;4.57;;;20.70;76.70;;;;;;4410044;32;20143;-66
2021/10/07 09:57:55;;;;;;;8.37;4.27;;;20.60;75.10;;;;;;4414081;32;20259;-67
2021/10/07 10:00:28;;;;;;;10.43;4.13;;;20.60;75.10;;;;;;4414357;32;20208;-66
2021/10/07 10:02:59;;;;;;;11.77;4.50;;;21.00;75.20;;;;;;4411673;32;20182;-67
2021/10/07 10:05:28;;;;;;;13.03;4.57;;;21.60;73.40;;;;;;4411335;32;20387;-67
2021/10/07 10:07:56;;;;;;;12.23;4.30;;;21.50;72.10;;;;;;4411484;32;20260;-67
2021/10/07 10:10:23;;;;;;;10.43;4.37;;;21.60;70.60;;;;;;4411587;32;20139;-67
2021/10/07 10:12:51;;;;;;;10.87;4.37;;;21.40;70.60;;;;;;4410523;32;20184;-66
2021/10/07 10:15:20;;;;;;;11.33;4.60;;;21.20;69.90;;;;;;4409210;32;20131;-67
2021/10/07 10:17:47;;;;;;;9.67;4.23;;;21.00;71.40;;;;;;4409477;32;20135;-67
2021/10/07 10:20:23;;;;;;;9.23;3.90;;;21.30;70.80;;;;;;4411141;32;20140;-67
2021/10/07 10:22:55;;;;;;;11.13;4.10;;;21.30;70.80;;;;;;4410041;32;20429;-66
2021/10/07 10:25:24;;;;;;;9.00;4.10;;;21.50;67.50;;;;;;4409533;32;20136;-67
2021/10/07 10:27:59;;;;;;;8.93;3.70;;;21.90;65.80;;;;;;4409413;32;20189;-68
2021/10/07 10:30:39;;;;;;;13.03;4.30;;;21.90;66.50;;;;;;4416229;32;20146;-66
2021/10/07 10:33:05;;;;;;;9.70;4.30;;;22.00;66.60;;;;;;4409195;32;20240;-67
2021/10/07 10:35:35;;;;;;;12.77;4.33;;;22.10;65.90;;;;;;4417130;32;20561;-67
2021/10/07 10:38:08;;;;;;;10.00;3.93;;;22.20;65.00;;;;;;4418388;32;20151;-67
2021/10/07 10:40:36;;;;;;;9.57;3.80;;;22.40;64.00;;;;;;4420849;32;20240;-67
2021/10/07 10:43:18;;;;;;;10.33;4.27;;;22.50;63.90;;;;;;4416942;32;20158;-67
2021/10/07 10:45:51;;;;;;;10.10;4.03;;;22.60;62.70;;;;;;4413066;32;20144;-68
2021/10/07 10:48:48;;;;;;;8.93;4.10;;;22.40;62.50;;;;;;4409007;32;20170;-67
2021/10/07 10:51:16;;;;;;;10.87;4.00;;;22.40;62.10;;;;;;4419637;32;20280;-67
2021/10/07 10:53:58;;;;;;;12.73;4.40;;;22.80;61.40;;;;;;4411656;32;20151;-66
2021/10/07 10:56:30;;;;;;;10.90;4.17;;;22.90;59.80;;;;;;4398789;32;20187;-67
2021/10/07 10:59:20;;;;;;;9.83;4.00;;;22.40;59.80;;;;;;4425603;32;20481;-67
2021/10/07 11:02:15;;;;;;;7.70;4.27;;;22.60;59.70;;;;;;4412327;32;20410;-67
2021/10/07 11:04:46;;;;;;;13.60;4.03;;;22.60;59.20;;;;;;4410466;32;20300;-67
2021/10/07 11:07:23;;;;;;;15.23;4.27;;;23.20;59.30;;;;;;4419394;32;20271;-67
2021/10/07 11:09:55;;;;;;;9.73;4.27;;;23.50;58.60;;;;;;4413115;32;20473;-68
2021/10/07 11:12:23;;;;;;;10.27;4.53;;;23.90;58.00;;;;;;4423239;32;20197;-67
2021/10/07 11:14:53;;;;;;;11.75;4.75;;;23.90;56.30;;;;;;4421474;32;20212;-67
2021/10/07 11:17:21;;;;;;;11.47;4.83;;;24.10;55.90;;;;;;4414962;32;20205;-67
2021/10/07 11:19:49;;;;;;;11.57;4.83;;;24.30;54.80;;;;;;4422555;32;20201;-68
2021/10/07 11:22:16;;;;;;;11.20;4.97;;;24.60;55.00;;;;;;4425051;32;20170;-67
2021/10/07 11:24:50;;;;;;;12.27;5.20;;;24.90;53.50;;;;;;4423772;32;20131;-66
2021/10/07 11:27:34;;;;;;;14.63;5.47;;;24.90;52.50;;;;;;4423663;32;20155;-67
2021/10/07 11:30:04;;;;;;;11.15;5.18;;;24.80;52.40;;;;;;4425191;32;20201;-66
2021/10/07 11:32:31;;;;;;;16.23;5.43;;;25.40;51.20;;;;;;4423026;32;20159;-68
2021/10/07 11:35:07;;;;;;;12.07;5.03;;;25.80;49.60;;;;;;4422591;32;20147;-66
2021/10/07 11:37:56;;;;;;;10.52;5.15;;;26.40;49.10;;;;;;4423606;32;20147;-68
2021/10/07 11:40:32;;;;;;;14.77;5.07;;;26.40;48.60;;;;;;4423444;32;20131;-67
2021/10/07 11:43:02;;;;;;;11.23;4.90;;;27.40;47.60;;;;;;4425198;32;20154;-67
2021/10/07 11:45:38;;;;;;;16.42;5.47;;;28.00;46.20;;;;;;4425386;32;20391;-67
2021/10/07 11:48:09;;;;;;;11.30;5.12;;;27.70;44.80;;;;;;4425327;32;20173;-68
2021/10/07 11:50:47;;;;;;;13.10;4.90;;;28.20;45.20;;;;;;4425157;32;20171;-68
2021/10/07 11:53:37;;;;;;;10.55;5.07;;;28.20;44.50;;;;;;4424049;32;20187;-68
2021/10/07 11:56:10;;;;;;;14.00;4.80;;;28.90;44.00;;;;;;4423363;32;20166;-68
2021/10/07 11:58:37;;;;;;;11.40;4.70;;;28.90;42.60;;;;;;4424334;32;20174;-67
2021/10/07 12:01:04;;;;;;;13.90;4.72;;;29.40;42.00;;;;;;4423458;32;20127;-67
2021/10/07 12:03:34;;;;;;;11.15;4.53;;;29.30;41.70;;;;;;4425075;32;20135;-67
2021/10/07 12:06:04;;;;;;;10.13;4.65;;;29.50;40.90;;;;;;4409925;32;20134;-68
2021/10/07 12:08:36;;;;;;;10.65;4.10;;;29.90;41.20;;;;;;4424550;32;20188;-67
2021/10/07 12:11:04;;;;;;;10.70;4.35;;;29.90;41.00;;;;;;4423439;32;20184;-67
2021/10/07 12:13:34;;;;;;;7.50;4.00;;;30.00;39.50;;;;;;4421789;32;20171;-68
2021/10/07 12:16:25;;;;;;;10.70;3.87;;;30.00;39.00;;;;;;4416496;32;20143;-67
2021/10/07 12:19:08;;;;;;;8.50;4.32;;;29.80;39.10;;;;;;4409458;32;20193;-67
2021/10/07 12:21:37;;;;;;;7.57;3.72;;;29.20;39.50;;;;;;4408206;32;20155;-68
2021/10/07 12:24:15;;;;;;;8.32;3.72;;;29.40;40.10;;;;;;4407606;32;20139;-66
2021/10/07 12:26:54;;;;;;;13.15;4.28;;;29.80;39.70;;;;;;4407737;32;20208;-68
2021/10/07 12:29:26;;;;;;;10.40;4.05;;;30.20;38.90;;;;;;4409805;32;20127;-67
2021/10/07 12:32:13;;;;;;;10.02;4.15;;;30.70;37.90;;;;;;4409802;32;20161;-68
2021/10/07 12:34:46;;;;;;;9.75;4.00;;;30.30;38.20;;;;;;4407787;32;20181;-67
2021/10/07 12:37:15;;;;;;;10.38;3.92;;;30.00;38.50;;;;;;4408772;32;20147;-67
2021/10/07 12:39:48;;;;;;;7.00;3.55;;;30.10;38.10;;;;;;4409558;32;20387;-67
2021/10/07 12:42:20;;;;;;;12.10;4.00;;;29.50;38.60;;;;;;4409688;32;20151;-67
2021/10/07 12:44:50;;;;;;;10.55;3.75;;;29.40;38.80;;;;;;4410866;32;20175;-68
2021/10/07 12:47:28;;;;;;;8.20;3.62;;;29.00;38.60;;;;;;4414298;32;20224;-67
2021/10/07 12:49:56;;;;;;;9.35;3.55;;;28.70;39.20;;;;;;4409487;32;20128;-67
2021/10/07 12:52:29;;;;;;;11.40;4.03;;;28.80;39.60;;;;;;4409738;32;20189;-67
2021/10/07 12:55:03;;;;;;;8.68;4.05;;;28.20;39.80;;;;;;4409323;32;20356;-68
2021/10/07 12:57:37;;;;;;;11.05;3.97;;;26.70;41.30;;;;;;4407576;32;20199;-68